ADDS METAR Data INFO
IDs: Format: Raw Decoded Include TAF

Data at: 0202 UTC 26 Apr 2017

METAR for:KBEA (Beeville Muni, TX, US)
Text:KBEA 260155Z AUTO 13007KT 10SM BKN017 25/25 A2950 RMK AO2 T02450245
Temperature: 24.5°C ( 76°F)
Dewpoint: 24.5°C ( 76°F) [RH = 100%]
Pressure (altimeter):29.50 inches Hg ( 999.1 mb)
Winds:from the SE (130 degrees) at 8 MPH (7 knots; 3.6 m/s)
Visibility:10 or more sm (16+ km)
Ceiling:1700 feet AGL
Clouds: broken clouds at 1700 feet AGL
QC Flag:automated observation with no human augmentation


Page loaded:  02:02 UTC  |   07:02 PM Pacific  |   08:02 PM Mountain  |   09:02 PM Central  |   10:02 PM Eastern

 

ADVISORIES

FORECASTS

FORECASTS

OBSERVATIONS

USER TOOLS

ABOUT US